Terminal Aerodrome Forecast
Issued by NWS Newport/Morehead City, NC

Home | Current Version | Previous Version | Graphics & Text | Print | Product List | Glossary On
Versions: 1 2 3 4 5 6 7 8 9 10 11 12 13 14 15 16 17 18 19 20 21
000
FTUS42 KMHX 161700
TAFEWN
TAF
KEWN 161734Z 1618/1718 34005KT P6SM SCT040
     FM170000 VRB03KT P6SM BKN040
     FM170700 00000KT 5SM BR SCT007 BKN025
     FM171500 07008KT P6SM BKN035=

USA.gov is the U.S. government's official web portal to all federal, state and local government web resources and services.